KBPC

Pampa

Pampa, Texas, USA

KBPC 110855Z AUTO 25007KT 10SM CLR 00/M13 A3028 RMK AO2

Observed Flight Rules
Dec-11 @ 08:55 UTC (17 minutes ago) Visual Flight Rules
Wind Visibility Clouds
250° at 7 knots 10 miles
  • Clear skies
Temperatures Readings
Current 0°C / 32°F
Dewpoint -13°C / 9°F
Humidity 37%
Altimeter 30.28" Hg
Pressure 1025 hPa
Elevation 845
Observed Flight Rules
Dec-11 @ 08:55 UTC
(17 minutes ago)
VFR
Wind Visibility
250° at 7 knots 10 miles
Clouds
  • Clear skies
Temperature Dewpoint
0°C / 32°F -13°C / 9°F
Humidity Altimeter Pressure
37% 30.28" Hg 1025 hPa